Time;durP1;ratioP1;P1;durP2;ratioP2;P2;SDS_P1;SDS_P2;PMS_P1;PMS_P2;Temp;Humidity;BMP_temperature;BMP_pressure;BME280_temperature;BME280_humidity;BME280_pressure;Samples;Min_cycle;Max_cycle;Signal;HPM_P1;HPM_P2
2023/05/14 00:02:19;;;;;;;9.03;8.13;;;16.70;99.90;;;;;;5015329;28;20229;-67
2023/05/14 00:04:45;;;;;;;8.57;7.77;;;16.70;99.90;;;;;;5021163;28;20181;-66
2023/05/14 00:07:10;;;;;;;8.03;7.30;;;16.60;99.90;;;;;;5016024;28;20452;-67
2023/05/14 00:09:36;;;;;;;8.50;7.40;;;16.60;99.90;;;;;;5019847;28;20768;-66
2023/05/14 00:12:02;;;;;;;8.83;7.50;;;16.60;99.90;;;;;;5017827;28;20649;-67
2023/05/14 00:14:28;;;;;;;8.80;7.83;;;16.70;99.90;;;;;;5017821;28;20193;-66
2023/05/14 00:16:53;;;;;;;11.47;8.73;;;16.70;99.90;;;;;;5021120;28;20192;-67
2023/05/14 00:19:19;;;;;;;9.30;8.50;;;16.70;99.90;;;;;;5024861;28;20618;-67
2023/05/14 00:21:45;;;;;;;8.63;7.87;;;16.70;99.90;;;;;;5023824;28;20580;-66
2023/05/14 00:24:11;;;;;;;8.30;7.50;;;16.70;99.90;;;;;;5016866;28;20256;-66
2023/05/14 00:26:36;;;;;;;9.10;8.20;;;16.70;99.90;;;;;;5016814;28;20455;-66
2023/05/14 00:29:02;;;;;;;9.00;8.10;;;16.70;99.90;;;;;;5024290;28;20204;-66
2023/05/14 00:31:27;;;;;;;8.20;7.40;;;16.70;99.90;;;;;;5024405;28;20181;-66
2023/05/14 00:33:53;;;;;;;9.23;7.60;;;16.70;99.90;;;;;;5020812;28;20299;-67
2023/05/14 00:36:19;;;;;;;10.07;8.60;;;16.70;99.90;;;;;;5026341;28;20645;-66
2023/05/14 00:38:44;;;;;;;9.30;8.30;;;16.70;99.90;;;;;;5012517;28;20209;-66
2023/05/14 00:41:10;;;;;;;8.83;8.03;;;16.70;99.90;;;;;;5020031;28;20307;-66
2023/05/14 00:43:35;;;;;;;8.67;7.87;;;16.70;99.90;;;;;;5020157;28;20209;-67
2023/05/14 00:46:01;;;;;;;7.90;7.20;;;16.70;99.90;;;;;;5021787;28;20279;-67
2023/05/14 00:48:27;;;;;;;8.40;7.70;;;16.70;99.90;;;;;;5023108;28;20666;-66
2023/05/14 00:50:53;;;;;;;10.40;8.53;;;16.70;99.90;;;;;;5017143;28;20639;-66
2023/05/14 00:53:19;;;;;;;8.50;7.70;;;16.70;99.90;;;;;;5023406;28;20248;-66
2023/05/14 00:55:47;;;;;;;8.13;7.43;;;16.70;99.90;;;;;;5021478;28;20443;-66
2023/05/14 00:58:13;;;;;;;9.17;8.27;;;16.70;99.90;;;;;;5021330;28;20531;-67
2023/05/14 01:00:40;;;;;;;8.70;7.83;;;16.70;99.90;;;;;;5022844;28;20475;-67
2023/05/14 01:03:07;;;;;;;8.97;8.07;;;16.70;99.90;;;;;;5016057;28;20870;-66
2023/05/14 01:05:52;;;;;;;10.60;7.97;;;16.60;99.90;;;;;;5024709;28;21181;-66
2023/05/14 01:08:29;;;;;;;7.93;7.23;;;16.70;99.90;;;;;;5018046;28;20480;-66
2023/05/14 01:11:01;;;;;;;8.97;8.07;;;16.70;99.90;;;;;;5020008;28;20435;-66
2023/05/14 01:13:32;;;;;;;7.90;7.20;;;16.60;99.90;;;;;;5018355;28;20451;-67
2023/05/14 01:15:59;;;;;;;8.27;7.23;;;16.60;99.90;;;;;;5020453;28;20444;-66
2023/05/14 01:18:27;;;;;;;10.33;7.77;;;16.60;99.90;;;;;;5019186;28;20866;-66
2023/05/14 01:20:53;;;;;;;8.67;7.90;;;16.60;99.90;;;;;;5021935;28;20494;-66
2023/05/14 01:23:19;;;;;;;13.50;9.40;;;16.60;99.90;;;;;;5024912;28;20471;-66
2023/05/14 01:25:44;;;;;;;8.50;7.70;;;16.60;99.90;;;;;;5017294;28;20442;-66
2023/05/14 01:28:17;;;;;;;8.17;7.37;;;16.50;99.90;;;;;;5022037;28;20446;-66
2023/05/14 01:31:24;;;;;;;8.67;7.87;;;16.50;99.90;;;;;;5015950;28;20177;-66
2023/05/14 01:33:50;;;;;;;10.00;7.57;;;16.50;99.90;;;;;;5016648;28;20463;-67
2023/05/14 01:36:16;;;;;;;9.40;7.90;;;16.50;99.90;;;;;;5015058;28;20928;-66
2023/05/14 01:38:44;;;;;;;9.23;8.40;;;16.50;99.90;;;;;;5017083;28;20456;-67
2023/05/14 01:41:11;;;;;;;8.20;7.50;;;16.50;99.90;;;;;;5018304;28;20450;-67
2023/05/14 01:43:37;;;;;;;9.33;8.37;;;16.50;99.90;;;;;;5014097;28;20533;-67
2023/05/14 01:46:03;;;;;;;8.87;7.97;;;16.40;99.90;;;;;;5014802;28;20428;-67
2023/05/14 01:48:29;;;;;;;8.80;8.00;;;16.40;99.90;;;;;;5014252;28;20448;-67
2023/05/14 01:50:54;;;;;;;8.67;7.87;;;16.40;99.90;;;;;;5022930;28;20181;-67
2023/05/14 01:53:20;;;;;;;9.70;8.80;;;16.40;99.90;;;;;;5024582;28;20188;-67
2023/05/14 01:55:45;;;;;;;8.17;7.47;;;16.40;99.90;;;;;;5020029;28;20247;-67
2023/05/14 01:58:11;;;;;;;9.20;8.40;;;16.40;99.90;;;;;;5018979;28;20258;-67
2023/05/14 02:00:37;;;;;;;9.30;8.40;;;16.40;99.90;;;;;;5016621;28;20271;-67
2023/05/14 02:03:02;;;;;;;7.73;7.03;;;16.30;99.90;;;;;;5014509;28;20795;-67
2023/05/14 02:05:28;;;;;;;8.90;7.47;;;16.30;99.90;;;;;;5020422;28;20929;-67
2023/05/14 02:07:54;;;;;;;8.50;7.70;;;16.30;99.90;;;;;;5042826;28;20181;-67
2023/05/14 02:10:19;;;;;;;9.80;8.37;;;16.20;99.90;;;;;;5017873;28;20179;-67
2023/05/14 02:12:45;;;;;;;8.37;7.43;;;16.20;99.90;;;;;;5014852;28;20188;-67
2023/05/14 02:15:11;;;;;;;7.63;7.00;;;16.20;99.90;;;;;;5015203;28;20213;-66
2023/05/14 02:17:36;;;;;;;8.83;7.93;;;16.10;99.90;;;;;;5011666;28;20250;-66
2023/05/14 02:20:02;;;;;;;8.10;7.30;;;16.10;99.90;;;;;;5021148;28;20283;-67
2023/05/14 02:22:28;;;;;;;11.07;9.40;;;16.10;99.90;;;;;;5022568;28;20193;-67
2023/05/14 02:24:54;;;;;;;10.20;9.20;;;16.00;99.90;;;;;;5013310;28;20443;-67
2023/05/14 02:27:20;;;;;;;9.07;8.07;;;16.00;99.90;;;;;;5017804;28;20182;-67
2023/05/14 02:29:46;;;;;;;9.10;8.20;;;16.00;99.90;;;;;;5019434;28;20510;-66
2023/05/14 02:32:11;;;;;;;9.47;8.43;;;15.90;99.90;;;;;;5017863;28;20404;-66
2023/05/14 02:34:37;;;;;;;10.10;8.23;;;15.90;99.90;;;;;;5022407;28;20486;-67
2023/05/14 02:37:03;;;;;;;8.20;7.37;;;15.90;99.90;;;;;;5014099;28;20835;-67
2023/05/14 02:39:28;;;;;;;9.50;7.33;;;15.80;99.90;;;;;;5017295;28;20279;-67
2023/05/14 02:41:54;;;;;;;8.87;7.97;;;15.80;99.90;;;;;;5019116;28;20189;-67
2023/05/14 02:44:19;;;;;;;8.27;7.53;;;15.80;99.90;;;;;;5021869;28;20208;-67
2023/05/14 02:46:45;;;;;;;8.20;7.50;;;15.80;99.90;;;;;;5019811;28;20188;-67
2023/05/14 02:49:11;;;;;;;7.90;7.20;;;15.80;99.90;;;;;;5020988;28;20575;-67
2023/05/14 02:51:36;;;;;;;10.57;7.53;;;15.80;99.90;;;;;;5019926;28;20193;-67
2023/05/14 02:54:02;;;;;;;9.73;8.20;;;15.70;99.90;;;;;;5019370;28;20297;-67
2023/05/14 02:56:27;;;;;;;8.67;7.77;;;15.70;99.90;;;;;;5028019;28;20177;-67
2023/05/14 02:58:53;;;;;;;10.17;9.10;;;15.70;99.90;;;;;;5021211;28;20200;-67
2023/05/14 03:01:19;;;;;;;9.50;7.40;;;15.70;99.90;;;;;;5013357;28;20238;-67
2023/05/14 03:03:44;;;;;;;8.90;8.10;;;15.70;99.90;;;;;;5021457;28;20208;-67
2023/05/14 03:06:10;;;;;;;8.67;7.30;;;15.70;99.90;;;;;;5021341;28;20239;-67
2023/05/14 03:08:35;;;;;;;8.40;7.60;;;15.70;99.90;;;;;;5016727;28;20204;-67
2023/05/14 03:11:01;;;;;;;9.30;8.07;;;15.70;99.90;;;;;;5013561;28;20227;-67
2023/05/14 03:13:27;;;;;;;9.00;8.10;;;15.70;99.90;;;;;;5019853;28;20192;-67
2023/05/14 03:15:53;;;;;;;10.90;8.27;;;15.60;99.90;;;;;;5012787;28;20430;-67
2023/05/14 03:18:19;;;;;;;8.00;7.20;;;15.60;99.90;;;;;;5016988;28;20204;-66
2023/05/14 03:20:45;;;;;;;7.77;7.07;;;15.60;99.90;;;;;;5015769;28;20455;-67
2023/05/14 03:23:11;;;;;;;8.10;7.27;;;15.60;99.90;;;;;;5020969;28;20553;-67
2023/05/14 03:25:36;;;;;;;9.13;8.27;;;15.60;99.90;;;;;;5018516;28;20184;-67
2023/05/14 03:28:02;;;;;;;8.10;7.30;;;15.60;99.90;;;;;;5016497;28;20200;-67
2023/05/14 03:30:28;;;;;;;7.27;6.67;;;15.60;99.90;;;;;;5014222;28;20177;-67
2023/05/14 03:32:54;;;;;;;7.97;7.27;;;15.60;99.90;;;;;;5018010;28;20481;-67
2023/05/14 03:35:19;;;;;;;7.93;7.13;;;15.60;99.90;;;;;;5018439;28;20181;-67
2023/05/14 03:37:45;;;;;;;6.97;6.30;;;15.60;99.90;;;;;;5017716;28;20247;-68
2023/05/14 03:40:11;;;;;;;7.80;6.63;;;15.60;99.90;;;;;;5012221;28;20229;-67
2023/05/14 03:42:36;;;;;;;8.17;7.37;;;15.60;99.90;;;;;;5017868;28;20242;-66
2023/05/14 03:45:02;;;;;;;7.50;6.80;;;15.50;99.90;;;;;;5015028;28;20275;-66
2023/05/14 03:47:28;;;;;;;7.70;7.00;;;15.50;99.90;;;;;;5016846;28;20235;-66
2023/05/14 03:49:53;;;;;;;7.50;6.80;;;15.50;99.90;;;;;;5012604;28;20694;-66
2023/05/14 03:52:19;;;;;;;8.47;7.67;;;15.50;99.90;;;;;;5014953;28;20639;-66
2023/05/14 03:54:45;;;;;;;11.30;8.53;;;15.50;99.90;;;;;;5015478;28;20216;-65
2023/05/14 03:57:10;;;;;;;7.30;6.60;;;15.40;99.90;;;;;;5020973;28;20260;-65
2023/05/14 03:59:36;;;;;;;7.67;6.87;;;15.40;99.90;;;;;;5019601;28;20205;-66
2023/05/14 04:02:01;;;;;;;7.17;6.47;;;15.40;99.90;;;;;;5022293;28;20352;-66
2023/05/14 04:04:27;;;;;;;7.43;6.60;;;15.40;99.90;;;;;;5022867;28;20212;-66
2023/05/14 04:06:52;;;;;;;8.00;6.50;;;15.30;99.90;;;;;;5018842;28;20188;-66
2023/05/14 04:09:18;;;;;;;8.60;7.23;;;15.30;99.90;;;;;;5016626;28;20215;-66
2023/05/14 04:11:43;;;;;;;8.50;7.60;;;15.30;99.90;;;;;;5024200;28;20202;-66
2023/05/14 04:14:09;;;;;;;7.60;6.90;;;15.20;99.90;;;;;;5019141;28;20263;-67
2023/05/14 04:16:35;;;;;;;8.17;7.27;;;15.20;99.90;;;;;;5022751;28;20192;-67
2023/05/14 04:19:03;;;;;;;7.23;6.53;;;15.20;99.90;;;;;;5019937;28;20208;-67
2023/05/14 04:21:29;;;;;;;6.80;6.20;;;15.10;99.90;;;;;;5019234;28;20192;-67
2023/05/14 04:23:54;;;;;;;7.30;6.60;;;15.20;99.90;;;;;;5024084;28;20609;-67
2023/05/14 04:26:20;;;;;;;8.03;6.87;;;15.10;99.90;;;;;;5016852;28;20208;-67
2023/05/14 04:28:45;;;;;;;6.93;6.23;;;15.10;99.90;;;;;;5021326;28;20208;-67
2023/05/14 04:31:11;;;;;;;7.27;6.57;;;15.10;99.90;;;;;;5023760;28;20208;-67
2023/05/14 04:33:37;;;;;;;7.93;7.03;;;15.10;99.90;;;;;;5017820;28;20196;-67
2023/05/14 04:36:03;;;;;;;8.13;7.43;;;15.10;99.90;;;;;;5021317;28;20764;-67
2023/05/14 04:38:30;;;;;;;6.43;5.83;;;15.10;99.90;;;;;;5014787;28;21951;-67
2023/05/14 04:40:56;;;;;;;6.93;6.20;;;15.00;99.90;;;;;;5020536;28;20433;-67
2023/05/14 04:43:21;;;;;;;7.97;7.00;;;15.00;99.90;;;;;;5017900;28;20848;-67
2023/05/14 04:45:47;;;;;;;7.10;6.50;;;15.00;99.90;;;;;;5016426;28;20200;-67
2023/05/14 04:48:12;;;;;;;7.20;6.50;;;15.00;99.90;;;;;;5020230;28;20203;-67
2023/05/14 04:50:38;;;;;;;8.67;7.60;;;15.00;99.90;;;;;;5020991;28;20184;-67
2023/05/14 04:53:04;;;;;;;8.80;7.00;;;15.00;99.90;;;;;;5020427;28;20643;-67
2023/05/14 04:55:29;;;;;;;8.67;6.87;;;15.00;99.90;;;;;;5018459;28;20676;-67
2023/05/14 04:57:55;;;;;;;8.23;7.07;;;15.00;99.90;;;;;;5016983;28;20709;-67
2023/05/14 05:00:21;;;;;;;7.57;6.50;;;15.00;99.90;;;;;;5017969;28;20185;-67
2023/05/14 05:02:47;;;;;;;7.63;6.83;;;15.00;99.90;;;;;;5018659;28;20180;-67
2023/05/14 05:05:12;;;;;;;8.33;7.27;;;15.00;99.90;;;;;;5021306;28;20436;-67
2023/05/14 05:07:38;;;;;;;6.60;6.00;;;14.90;99.90;;;;;;5019380;28;20211;-67
2023/05/14 05:10:04;;;;;;;7.20;6.50;;;14.90;99.90;;;;;;5025315;28;20365;-67
2023/05/14 05:12:30;;;;;;;7.93;6.57;;;14.90;99.90;;;;;;5024770;28;20432;-65
2023/05/14 05:14:56;;;;;;;8.20;6.40;;;14.90;99.90;;;;;;5015094;28;20537;-66
2023/05/14 05:17:22;;;;;;;7.30;6.53;;;14.90;99.90;;;;;;5022007;28;20191;-66
2023/05/14 05:19:48;;;;;;;7.33;6.63;;;15.00;99.90;;;;;;5022855;28;20447;-66
2023/05/14 05:22:14;;;;;;;8.77;7.13;;;15.00;99.90;;;;;;5024326;28;20771;-66
2023/05/14 05:24:39;;;;;;;9.00;7.13;;;15.00;99.90;;;;;;5020426;28;20229;-66
2023/05/14 05:27:05;;;;;;;7.83;6.97;;;14.90;99.90;;;;;;5023698;28;20181;-66
2023/05/14 05:29:31;;;;;;;7.40;6.70;;;14.90;99.90;;;;;;5026211;28;20203;-68
2023/05/14 05:31:56;;;;;;;9.20;6.97;;;14.90;99.90;;;;;;5018354;28;20184;-66
2023/05/14 05:34:22;;;;;;;8.03;7.20;;;15.00;99.90;;;;;;5027958;28;20180;-66
2023/05/14 05:36:48;;;;;;;7.13;6.43;;;15.00;99.90;;;;;;5021078;28;20197;-65
2023/05/14 05:39:13;;;;;;;7.83;7.03;;;15.00;99.90;;;;;;5019647;28;20230;-65
2023/05/14 05:41:39;;;;;;;8.03;7.23;;;15.00;99.90;;;;;;5022878;28;20643;-65
2023/05/14 05:44:05;;;;;;;7.40;6.67;;;15.00;99.90;;;;;;5023634;28;20222;-66
2023/05/14 05:46:30;;;;;;;7.20;6.50;;;15.00;99.90;;;;;;5021234;28;21024;-66
2023/05/14 05:48:56;;;;;;;7.43;6.60;;;15.10;99.90;;;;;;5030648;28;20215;-66
2023/05/14 05:51:21;;;;;;;7.83;6.20;;;15.10;99.90;;;;;;5020576;28;20632;-66
2023/05/14 05:53:47;;;;;;;9.77;7.47;;;15.10;99.90;;;;;;5028144;28;20540;-66
2023/05/14 05:56:12;;;;;;;9.43;6.60;;;15.20;99.90;;;;;;5017192;28;20236;-66
2023/05/14 05:58:39;;;;;;;7.70;6.80;;;15.30;99.90;;;;;;5022822;28;20208;-66
2023/05/14 06:01:05;;;;;;;7.93;7.13;;;15.30;99.90;;;;;;5018896;28;20288;-66
2023/05/14 06:03:30;;;;;;;7.17;6.33;;;15.40;99.90;;;;;;5021121;28;20521;-65
2023/05/14 06:05:56;;;;;;;7.33;6.63;;;15.40;99.90;;;;;;5018797;28;20458;-65
2023/05/14 06:08:22;;;;;;;7.93;6.87;;;15.40;99.90;;;;;;5012441;28;20255;-65
2023/05/14 06:10:47;;;;;;;7.40;6.70;;;15.40;99.90;;;;;;5016620;28;20197;-66
2023/05/14 06:13:13;;;;;;;8.47;7.67;;;15.50;99.90;;;;;;5019061;28;20195;-66
2023/05/14 06:15:38;;;;;;;7.70;6.90;;;15.50;99.90;;;;;;5022783;28;20208;-66
2023/05/14 06:18:04;;;;;;;8.20;7.40;;;15.60;99.90;;;;;;5023397;28;20216;-65
2023/05/14 06:20:30;;;;;;;7.50;6.80;;;15.60;99.90;;;;;;5021711;28;20246;-65
2023/05/14 06:22:55;;;;;;;7.20;6.50;;;15.60;99.90;;;;;;5019868;28;20213;-65
2023/05/14 06:25:21;;;;;;;7.40;6.70;;;15.70;99.90;;;;;;5020651;28;20184;-66
2023/05/14 06:27:46;;;;;;;7.50;6.80;;;15.70;99.90;;;;;;5021462;28;20238;-66
2023/05/14 06:30:12;;;;;;;7.63;6.83;;;15.80;99.90;;;;;;5021753;28;20181;-66
2023/05/14 06:32:38;;;;;;;7.90;7.10;;;15.90;99.90;;;;;;5014355;28;20181;-66
2023/05/14 06:35:05;;;;;;;7.90;6.67;;;16.00;99.90;;;;;;5022888;28;20541;-66
2023/05/14 06:37:30;;;;;;;7.67;6.87;;;16.00;99.90;;;;;;5019886;28;20475;-66
2023/05/14 06:39:56;;;;;;;8.03;7.23;;;16.10;99.90;;;;;;5020496;28;20495;-66
2023/05/14 06:42:21;;;;;;;8.87;8.07;;;16.10;99.90;;;;;;5021860;28;20192;-66
2023/05/14 06:44:47;;;;;;;7.60;6.87;;;16.20;99.90;;;;;;5019211;28;20219;-66
2023/05/14 06:47:12;;;;;;;7.30;6.60;;;16.20;99.90;;;;;;5017733;28;20246;-66
2023/05/14 06:49:38;;;;;;;9.07;8.17;;;16.20;99.90;;;;;;5024088;28;20222;-67
2023/05/14 06:52:04;;;;;;;8.50;7.67;;;16.20;99.90;;;;;;5024365;28;20533;-66
2023/05/14 06:54:30;;;;;;;8.43;7.47;;;16.30;99.90;;;;;;5019251;28;20224;-66
2023/05/14 06:56:56;;;;;;;7.50;6.80;;;16.40;99.90;;;;;;5016003;28;20495;-66
2023/05/14 06:59:21;;;;;;;7.83;6.90;;;16.40;99.90;;;;;;5018224;28;20644;-66
2023/05/14 07:01:47;;;;;;;8.60;6.67;;;16.40;99.90;;;;;;5016979;28;20482;-67
2023/05/14 07:04:13;;;;;;;7.40;6.70;;;16.40;99.90;;;;;;5021241;28;20291;-66
2023/05/14 07:06:38;;;;;;;7.70;7.00;;;16.40;99.90;;;;;;5023912;28;20604;-66
2023/05/14 07:09:05;;;;;;;17.57;9.07;;;16.50;99.90;;;;;;5023706;28;20195;-66
2023/05/14 07:11:30;;;;;;;9.17;7.50;;;16.50;99.90;;;;;;5015691;28;20500;-66
2023/05/14 07:13:56;;;;;;;7.10;6.40;;;16.50;99.90;;;;;;5021174;28;20444;-66
2023/05/14 07:16:22;;;;;;;8.33;7.50;;;16.50;99.90;;;;;;5016903;28;20287;-66
2023/05/14 07:18:47;;;;;;;8.77;7.83;;;16.60;99.90;;;;;;5011840;28;20196;-70
2023/05/14 07:21:13;;;;;;;8.73;7.87;;;16.60;99.90;;;;;;5020574;28;20215;-67
2023/05/14 07:23:38;;;;;;;8.50;6.50;;;16.60;99.90;;;;;;5021081;28;20243;-67
2023/05/14 07:26:05;;;;;;;7.10;6.40;;;16.70;99.90;;;;;;5024007;28;20183;-67
2023/05/14 07:28:30;;;;;;;8.30;7.50;;;16.80;99.90;;;;;;5021377;28;20205;-67
2023/05/14 07:30:56;;;;;;;8.33;7.53;;;16.80;99.90;;;;;;5019019;28;20534;-67
2023/05/14 07:33:22;;;;;;;8.07;7.27;;;16.80;99.90;;;;;;5023782;28;20239;-67
2023/05/14 07:35:48;;;;;;;8.23;7.43;;;16.90;99.90;;;;;;5027656;28;20200;-67
2023/05/14 07:38:14;;;;;;;9.23;7.10;;;16.90;99.90;;;;;;5024832;28;20454;-66
2023/05/14 07:40:40;;;;;;;8.77;7.87;;;17.00;99.90;;;;;;5015286;28;20185;-66
2023/05/14 07:43:05;;;;;;;7.57;6.87;;;17.00;99.90;;;;;;5025967;28;20982;-67
2023/05/14 07:45:31;;;;;;;7.13;6.43;;;17.00;99.90;;;;;;5022671;28;20697;-67
2023/05/14 07:47:57;;;;;;;8.67;7.30;;;17.00;99.90;;;;;;5028644;28;20247;-67
2023/05/14 07:50:23;;;;;;;9.73;7.80;;;17.00;99.90;;;;;;5021165;28;20765;-67
2023/05/14 07:52:49;;;;;;;8.03;7.23;;;17.00;99.90;;;;;;5021404;28;20267;-67
2023/05/14 07:55:14;;;;;;;6.70;6.00;;;17.10;99.90;;;;;;5026936;28;20554;-66
2023/05/14 07:57:40;;;;;;;8.17;7.10;;;17.00;99.90;;;;;;5029802;28;20239;-68
2023/05/14 08:00:09;;;;;;;7.27;6.53;;;17.00;99.90;;;;;;5029193;28;20203;-67
2023/05/14 08:02:36;;;;;;;7.00;6.30;;;17.10;99.90;;;;;;5021699;28;20194;-67
2023/05/14 08:05:03;;;;;;;8.07;7.37;;;17.10;99.90;;;;;;5028395;28;20862;-68
2023/05/14 08:07:29;;;;;;;7.60;6.90;;;17.10;99.90;;;;;;5012783;28;21400;-67
2023/05/14 08:09:54;;;;;;;7.20;6.50;;;17.20;99.90;;;;;;5020452;28;20557;-69
2023/05/14 08:12:20;;;;;;;8.17;7.30;;;17.20;99.90;;;;;;5019951;28;20188;-66
2023/05/14 08:14:46;;;;;;;8.30;7.50;;;17.20;99.90;;;;;;5018578;28;20260;-65
2023/05/14 08:17:12;;;;;;;8.50;7.70;;;17.20;99.90;;;;;;5015480;28;20232;-67
2023/05/14 08:19:37;;;;;;;7.50;6.80;;;17.30;99.90;;;;;;5023771;28;20204;-66
2023/05/14 08:22:03;;;;;;;8.13;7.33;;;17.40;99.90;;;;;;5016251;28;20435;-67
2023/05/14 08:24:29;;;;;;;8.40;7.47;;;17.40;99.90;;;;;;5025908;28;20206;-67
2023/05/14 08:26:54;;;;;;;7.27;6.57;;;17.40;99.90;;;;;;5026179;28;20736;-66
2023/05/14 08:29:20;;;;;;;7.20;6.53;;;17.40;99.90;;;;;;5021192;28;20686;-68
2023/05/14 08:31:49;;;;;;;7.63;6.93;;;17.40;99.90;;;;;;5014607;28;20181;-67
2023/05/14 08:34:15;;;;;;;7.43;6.73;;;17.40;99.90;;;;;;5025791;28;20184;-67
2023/05/14 08:36:41;;;;;;;7.30;6.60;;;17.50;99.90;;;;;;5026046;28;20484;-67
2023/05/14 08:39:06;;;;;;;8.90;7.17;;;17.50;99.90;;;;;;5025056;28;20211;-68
2023/05/14 08:41:33;;;;;;;8.80;7.07;;;17.60;99.90;;;;;;5022416;28;20188;-66
2023/05/14 08:44:10;;;;;;;7.30;6.67;;;17.70;99.90;;;;;;5022602;28;20834;-65
2023/05/14 08:46:37;;;;;;;7.57;6.10;;;17.80;99.90;;;;;;5029424;28;20592;-66
2023/05/14 08:49:15;;;;;;;7.80;7.00;;;18.00;99.90;;;;;;5026398;28;20557;-66
2023/05/14 08:51:43;;;;;;;6.63;6.03;;;18.10;99.90;;;;;;5016728;28;20592;-66
2023/05/14 08:54:13;;;;;;;7.13;6.27;;;18.20;99.90;;;;;;5023264;28;20423;-66
2023/05/14 08:56:41;;;;;;;9.03;7.90;;;18.30;99.90;;;;;;5021465;28;20522;-66
2023/05/14 08:59:06;;;;;;;6.47;5.87;;;18.40;99.90;;;;;;5024019;28;20453;-66
2023/05/14 09:01:32;;;;;;;7.23;6.53;;;18.40;99.90;;;;;;5024979;28;20442;-67
2023/05/14 09:04:05;;;;;;;6.33;5.70;;;18.60;99.90;;;;;;5017050;28;20295;-67
2023/05/14 09:06:32;;;;;;;6.97;6.30;;;18.80;99.90;;;;;;5026090;28;20164;-66
2023/05/14 09:08:57;;;;;;;6.93;6.30;;;19.00;99.90;;;;;;5016864;28;20463;-67
2023/05/14 09:11:23;;;;;;;6.10;5.50;;;19.30;99.90;;;;;;5017215;28;20440;-67
2023/05/14 09:13:49;;;;;;;6.33;5.73;;;19.50;99.90;;;;;;5011918;28;20280;-66
2023/05/14 09:16:17;;;;;;;7.73;6.30;;;19.60;99.90;;;;;;5020009;28;20268;-68
2023/05/14 09:18:44;;;;;;;5.70;5.20;;;19.70;99.90;;;;;;5012422;28;20753;-66
2023/05/14 09:21:12;;;;;;;6.03;4.83;;;19.70;99.90;;;;;;5015193;28;20558;-65
2023/05/14 09:23:42;;;;;;;5.70;5.20;;;19.80;99.90;;;;;;5016961;28;20832;-65
2023/05/14 09:26:07;;;;;;;5.93;5.33;;;20.00;99.90;;;;;;5018557;28;20443;-67
2023/05/14 09:28:33;;;;;;;5.57;5.07;;;20.20;99.90;;;;;;5021252;28;20447;-67
2023/05/14 09:30:59;;;;;;;5.50;5.00;;;20.30;99.90;;;;;;5017993;28;20220;-67
2023/05/14 09:33:28;;;;;;;5.97;5.40;;;20.40;99.90;;;;;;5016601;28;20224;-67
2023/05/14 09:36:00;;;;;;;5.53;4.93;;;20.40;99.90;;;;;;5017910;28;20553;-67
2023/05/14 09:38:29;;;;;;;5.97;5.37;;;20.40;99.90;;;;;;5011742;28;20510;-67
2023/05/14 09:40:56;;;;;;;5.50;5.00;;;20.50;99.90;;;;;;5013993;28;20452;-67
2023/05/14 09:43:21;;;;;;;6.13;5.53;;;20.50;99.90;;;;;;5018968;28;20734;-67
2023/05/14 09:45:47;;;;;;;4.80;4.23;;;20.60;99.90;;;;;;5020910;28;20454;-67
2023/05/14 09:48:12;;;;;;;8.43;6.93;;;20.80;99.90;;;;;;5018686;28;20205;-67
2023/05/14 09:50:45;;;;;;;5.47;4.97;;;20.90;99.90;;;;;;5011167;28;20188;-67
2023/05/14 09:53:12;;;;;;;4.87;4.47;;;21.10;99.90;;;;;;5015812;28;20231;-67
2023/05/14 09:55:38;;;;;;;4.93;4.53;;;21.30;99.90;;;;;;5014883;28;20444;-67
2023/05/14 09:58:04;;;;;;;6.17;5.57;;;21.30;99.90;;;;;;5009427;28;20541;-68
2023/05/14 10:00:31;;;;;;;6.23;5.17;;;21.20;99.90;;;;;;5017801;28;20239;-66
2023/05/14 10:02:58;;;;;;;6.13;5.50;;;21.30;99.90;;;;;;5021538;28;20533;-68
2023/05/14 10:05:23;;;;;;;5.70;5.20;;;21.50;99.90;;;;;;5018122;28;20447;-66
2023/05/14 10:07:52;;;;;;;6.30;5.70;;;21.50;99.90;;;;;;5014496;28;20434;-67
2023/05/14 10:10:25;;;;;;;5.90;5.40;;;21.60;99.90;;;;;;5016782;28;20427;-66
2023/05/14 10:12:55;;;;;;;6.10;5.50;;;21.60;99.90;;;;;;5011922;28;20461;-67
2023/05/14 10:15:50;;;;;;;6.50;5.90;;;21.60;99.90;;;;;;5017346;28;21180;-66
2023/05/14 10:18:19;;;;;;;6.70;6.10;;;21.60;99.90;;;;;;5015784;28;20920;-66
2023/05/14 10:20:56;;;;;;;7.30;6.23;;;21.60;99.90;;;;;;5021294;28;20439;-67
2023/05/14 10:23:22;;;;;;;7.67;6.60;;;21.50;99.90;;;;;;5015900;28;20511;-66
2023/05/14 10:25:48;;;;;;;9.63;6.73;;;21.50;99.90;;;;;;5016203;28;20427;-68
2023/05/14 10:28:15;;;;;;;6.27;5.67;;;21.30;99.90;;;;;;5047860;28;20496;-67
2023/05/14 10:30:47;;;;;;;7.33;6.67;;;21.30;99.90;;;;;;5018434;28;20443;-66
2023/05/14 10:33:15;;;;;;;8.80;6.07;;;21.40;99.90;;;;;;5009697;28;21095;-65
2023/05/14 10:36:01;;;;;;;6.57;5.97;;;21.60;99.90;;;;;;5022491;28;20420;-66
2023/05/14 10:38:28;;;;;;;7.70;6.97;;;21.70;99.90;;;;;;5019452;28;20467;-66
2023/05/14 10:41:16;;;;;;;6.33;5.77;;;21.80;99.90;;;;;;5022581;28;20804;-66
2023/05/14 10:43:42;;;;;;;7.07;6.33;;;21.90;99.90;;;;;;5017626;28;20463;-66
2023/05/14 10:46:10;;;;;;;8.10;7.40;;;21.90;99.90;;;;;;5015618;28;20427;-66
2023/05/14 10:48:37;;;;;;;8.50;7.67;;;21.90;99.90;;;;;;5018510;28;20448;-66
2023/05/14 10:51:05;;;;;;;14.60;13.30;;;21.90;99.90;;;;;;5017364;28;20550;-66
2023/05/14 10:53:39;;;;;;;8.30;7.53;;;21.60;99.90;;;;;;5019049;28;20538;-66
2023/05/14 10:56:07;;;;;;;34.07;30.97;;;21.30;99.90;;;;;;5027920;28;20418;-66
2023/05/14 10:58:37;;;;;;;23.80;19.37;;;21.40;99.90;;;;;;5018940;28;20463;-66
2023/05/14 11:01:05;;;;;;;12.90;11.60;;;21.40;99.90;;;;;;5021463;28;20443;-66
2023/05/14 11:03:31;;;;;;;8.23;7.47;;;21.50;99.90;;;;;;5020756;28;20548;-66
2023/05/14 11:05:59;;;;;;;7.43;6.77;;;21.50;99.90;;;;;;5025664;28;20925;-65
2023/05/14 11:08:26;;;;;;;7.13;6.43;;;21.60;99.90;;;;;;5022028;28;20528;-65
2023/05/14 11:10:53;;;;;;;7.03;6.10;;;21.70;99.90;;;;;;5028078;28;20427;-65
2023/05/14 11:13:18;;;;;;;6.80;6.20;;;21.90;99.90;;;;;;5024743;28;20431;-66
2023/05/14 11:15:47;;;;;;;6.40;5.80;;;22.20;99.90;;;;;;5022977;28;20534;-66
2023/05/14 11:18:12;;;;;;;6.87;6.17;;;22.50;99.90;;;;;;5021902;28;20587;-66
2023/05/14 11:20:38;;;;;;;8.50;6.27;;;22.80;99.90;;;;;;5027215;28;20438;-66
2023/05/14 11:23:04;;;;;;;6.20;5.50;;;23.10;99.90;;;;;;5025552;28;20283;-66
2023/05/14 11:25:29;;;;;;;5.47;5.07;;;23.30;99.90;;;;;;5030281;28;20374;-66
2023/05/14 11:27:57;;;;;;;6.73;6.03;;;23.40;99.90;;;;;;5023691;28;20292;-66
2023/05/14 11:30:23;;;;;;;6.83;6.13;;;23.50;99.90;;;;;;5020198;28;20173;-66
2023/05/14 11:32:50;;;;;;;6.10;5.50;;;23.70;99.90;;;;;;5028688;28;20531;-66
2023/05/14 11:35:16;;;;;;;6.03;5.37;;;23.90;99.90;;;;;;5028198;28;20413;-66
2023/05/14 11:37:43;;;;;;;6.93;6.17;;;24.10;99.90;;;;;;5030111;28;20804;-66
2023/05/14 11:40:17;;;;;;;6.90;5.83;;;24.20;99.20;;;;;;5028601;28;20440;-66
2023/05/14 11:42:43;;;;;;;5.87;5.37;;;24.20;98.00;;;;;;5025627;28;20528;-66
2023/05/14 11:45:13;;;;;;;6.00;5.47;;;24.30;98.00;;;;;;5024001;28;20538;-66
2023/05/14 11:47:40;;;;;;;5.70;5.20;;;24.40;97.10;;;;;;5023555;28;20180;-66
2023/05/14 11:50:06;;;;;;;9.80;5.50;;;24.50;96.40;;;;;;5026271;28;20423;-66
2023/05/14 11:52:40;;;;;;;7.00;6.30;;;24.60;96.30;;;;;;5019665;28;20484;-66
2023/05/14 11:55:10;;;;;;;5.53;5.10;;;24.70;96.00;;;;;;5027607;28;20412;-66
2023/05/14 11:57:36;;;;;;;7.00;5.87;;;24.80;95.70;;;;;;5020477;28;21066;-66
2023/05/14 12:00:03;;;;;;;8.20;5.23;;;24.90;95.80;;;;;;5021689;28;20519;-66
2023/05/14 12:02:29;;;;;;;6.10;5.33;;;25.10;95.50;;;;;;5025118;28;20177;-66
2023/05/14 12:04:54;;;;;;;6.53;5.83;;;25.50;94.30;;;;;;5030252;28;20458;-66
2023/05/14 12:07:20;;;;;;;6.00;5.50;;;25.90;93.10;;;;;;5024349;28;20211;-66
2023/05/14 12:09:48;;;;;;;5.23;4.83;;;27.80;92.90;;;;;;5019420;28;20300;-66
2023/05/14 12:12:20;;;;;;;6.13;5.53;;;30.10;88.00;;;;;;5023482;28;20180;-66
2023/05/14 12:14:47;;;;;;;6.03;5.53;;;30.90;76.80;;;;;;5023933;28;20442;-66
2023/05/14 12:17:15;;;;;;;5.47;5.07;;;30.80;73.10;;;;;;5025431;28;20418;-63
2023/05/14 12:19:42;;;;;;;5.60;5.20;;;30.40;69.30;;;;;;5020608;28;20443;-65
2023/05/14 12:22:09;;;;;;;5.07;4.63;;;30.30;68.90;;;;;;5022335;28;20431;-65
2023/05/14 12:24:34;;;;;;;4.53;4.13;;;30.80;69.10;;;;;;5015710;28;20459;-65
2023/05/14 12:27:01;;;;;;;6.23;5.63;;;31.80;67.50;;;;;;5021406;28;20850;-64
2023/05/14 12:29:27;;;;;;;5.43;5.03;;;31.80;61.60;;;;;;5019380;28;20197;-65
2023/05/14 12:31:52;;;;;;;5.40;4.90;;;31.20;61.40;;;;;;5018828;28;20789;-65
2023/05/14 12:34:18;;;;;;;5.50;5.00;;;32.00;61.90;;;;;;5025715;28;20259;-64
2023/05/14 12:36:43;;;;;;;5.70;5.20;;;33.20;58.70;;;;;;5018613;28;20189;-65
2023/05/14 12:39:11;;;;;;;5.17;4.77;;;32.60;57.50;;;;;;5027554;28;20212;-65
2023/05/14 12:41:37;;;;;;;5.57;5.17;;;32.00;57.30;;;;;;5021852;28;20207;-65
2023/05/14 12:44:03;;;;;;;5.07;4.67;;;31.50;56.40;;;;;;5023194;28;20481;-65